Silver Cloud — C6MQ5 — position and weather

sailwx.info

Track history (hours):
 
Tides and Currents Weather Stations Pressure Air Temp Water Temp Dewpoint Dewpoint Depression Visibility Wind Speed Wind Dir Waves Ship Positions

Silver Cloud

Operator: V Ships Leisure SAM

Last reported at 2019-Jul-23 01:54 UTC. Time now 2019-Jul-23 09:37 UTC.
Position N 71°28' E 021°04'.

Length 156 m; draft 5.7 m.

Type: Passenger vessel. MMSI: 309027000.

Date/timePositionNaut miles runAvg speedWind from/ knotsBaromVisibWave heightAir tempDewpointWater temp
2019-Jul-23 01:54N 71°28' E 021°04'717.6
2019-Jul-23 01:30N 71°21' E 021°03'917.8
2019-Jul-23 01:00N 71°12' E 021°01'918.0
2019-Jul-23 00:30N 71°03' E 020°58'917.8
2019-Jul-23 00:00N 70°54' E 020°55'918.0
2019-Jul-22 23:30N 70°45' E 020°52'917.8
2019-Jul-22 23:00N 70°36' E 020°49'917.5
2019-Jul-22 22:30N 70°28' E 020°43'917.7
2019-Jul-22 21:59N 70°19' E 020°33'918.1
2019-Jul-22 21:30N 70°12' E 020°21'918.0
2019-Jul-22 21:00N 70°04' E 020°08'816.4
2019-Jul-22 20:30N 69°57' E 019°55'917.3
2019-Jul-22 20:00N 69°50' E 019°39'918.6
2019-Jul-22 19:30N 69°47' E 019°13'817.2
2019-Jul-22 19:00N 69°42' E 018°54'4 7.3
2019-Jul-22 18:30N 69°38' E 018°57'1 2.1
2019-Jul-22 18:00N 69°39' E 018°58'0 0.0
2019-Jul-22 17:30N 69°39' E 018°58'0 0.0
2019-Jul-22 17:00N 69°39' E 018°58'0 0.0
2019-Jul-22 16:30N 69°39' E 018°58'0 0.0
2019-Jul-22 16:00N 69°39' E 018°58'0 0.0
2019-Jul-22 15:30N 69°39' E 018°58'0 0.0
2019-Jul-22 15:00N 69°39' E 018°58'0 0.0
2019-Jul-22 14:30N 69°39' E 018°58'0 0.0
2019-Jul-22 14:00N 69°39' E 018°58'0 0.0
2019-Jul-22 13:30N 69°39' E 018°58'0 0.0
2019-Jul-22 13:00N 69°39' E 018°58'0 0.0
2019-Jul-22 12:30N 69°39' E 018°58'0 0.0
2019-Jul-22 12:00N 69°39' E 018°58'0 0.0
2019-Jul-22 11:30N 69°39' E 018°58'0 0.0
2019-Jul-22 11:00N 69°39' E 018°58'0 0.0
2019-Jul-22 10:30N 69°39' E 018°58'0 0.0
2019-Jul-22 10:00N 69°39' E 018°58'0 0.0
2019-Jul-22 09:30N 69°39' E 018°58'0 0.0
2019-Jul-22 09:00N 69°39' E 018°58'0 0.0
2019-Jul-22 08:30N 69°39' E 018°58'0 0.0
2019-Jul-22 08:00N 69°39' E 018°58'0 0.0
2019-Jul-22 07:30N 69°39' E 018°58'0 0.0
2019-Jul-22 07:00N 69°39' E 018°58'1 1.6
2019-Jul-22 06:30N 69°38' E 018°57'3 5.8
2019-Jul-22 06:00N 69°40' E 018°51'510.4
2019-Jul-22 05:30N 69°44' E 019°01'510.2
2019-Jul-22 05:00N 69°47' E 019°14'611.1
2019-Jul-22 04:29N 69°49' E 019°29'612.0
2019-Jul-22 04:00N 69°51' E 019°45'713.7
2019-Jul-22 03:30N 69°56' E 019°57'713.8
2019-Jul-22 03:00N 70°02' E 020°07'713.7
2019-Jul-22 02:29N 70°09' E 020°16'713.3
2019-Jul-22 01:59N 70°14' E 020°26'713.4
2019-Jul-22 01:28N 70°21' E 020°36'613.0
2019-Jul-22 00:59N 70°26' E 020°44'612.7
2019-Jul-22 00:30N 70°32' E 020°51'612.4
2019-Jul-22 00:00N 70°37' E 021°02'713.1
2019-Jul-21 23:30N 70°41' E 021°17'613.0
2019-Jul-21 23:00N 70°45' E 021°33'613.0
2019-Jul-21 22:31N 70°48' E 021°50'712.8
2019-Jul-21 21:59N 70°52' E 022°07'713.7
2019-Jul-21 21:30N 70°55' E 022°26'713.9
2019-Jul-21 21:00N 70°58' E 022°44'713.7
2019-Jul-21 20:29N 71°01' E 023°03'714.0
2019-Jul-21 20:00N 71°04' E 023°22'713.5
2019-Jul-21 19:30N 71°08' E 023°40'713.4
2019-Jul-21 19:00N 71°11' E 023°59'713.8
2019-Jul-21 18:30N 71°12' E 024°20'713.7
2019-Jul-21 18:00N 71°13' E 024°40'714.1
2019-Jul-21 17:30N 71°12' E 025°02'714.3
2019-Jul-21 17:00N 71°12' E 025°24'714.1
2019-Jul-21 16:30N 71°12' E 025°47'510.0
2019-Jul-21 16:00N 71°07' E 025°52'0 0.1
2019-Jul-21 15:30N 71°07' E 025°52'0 0.0
2019-Jul-21 15:00N 71°07' E 025°52'0 0.0
2019-Jul-21 14:30N 71°07' E 025°52'0 0.0
2019-Jul-21 14:00N 71°07' E 025°52'0 0.0
2019-Jul-21 13:30N 71°07' E 025°52'0 0.0
2019-Jul-21 12:51N 71°07' E 025°52'0 0.0
2019-Jul-21 12:30N 71°07' E 025°52'0 0.1
2019-Jul-21 12:00N 71°07' E 025°51'0 0.1
2019-Jul-21 11:30N 71°07' E 025°52'3 5.7
2019-Jul-21 11:00N 71°10' E 025°52'3 6.0
2019-Jul-21 10:30N 71°12' E 025°45'3 6.9
2019-Jul-21 10:00N 71°12' E 025°34'3 6.4
2019-Jul-21 09:30N 71°09' E 025°27'1 2.5
2019-Jul-21 08:58N 71°08' E 025°25'0 0.1
2019-Jul-21 08:25N 71°08' E 025°25'0 0.0
2019-Jul-21 07:58N 71°08' E 025°25'0 0.0
2019-Jul-21 07:28N 71°08' E 025°25'0 0.0
2019-Jul-21 06:58N 71°08' E 025°25'0 0.1
2019-Jul-21 06:28N 71°08' E 025°25'0 0.0
2019-Jul-21 05:58N 71°08' E 025°25'0 0.0
2019-Jul-21 05:28N 71°08' E 025°25'0 0.0
2019-Jul-21 04:58N 71°08' E 025°25'0 1.0
2019-Jul-21 04:30N 71°08' E 025°26'4 8.1
2019-Jul-21 04:00N 71°12' E 025°34'510.3
2019-Jul-21 03:30N 71°11' E 025°50'5 9.9
2019-Jul-21 03:00N 71°09' E 026°04'510.2
2019-Jul-21 02:30N 71°05' E 026°14'5 9.9
2019-Jul-21 02:00N 71°00' E 026°17'4 7.3
2019-Jul-21 01:30N 71°04' E 026°19'611.7
2019-Jul-21 00:58N 71°09' E 026°10'612.2
2019-Jul-21 00:29N 71°14' E 025°60'713.9
2019-Jul-21 00:00N 71°20' E 025°48'816.0
2019-Jul-20 23:30N 71°26' E 025°32'815.5
2019-Jul-20 23:00N 71°32' E 025°15'815.3
2019-Jul-20 22:30N 71°37' E 024°57'713.2
2019-Jul-20 22:00N 71°43' E 024°55'613.1
2019-Jul-20 21:30N 71°49' E 024°46'713.7
2019-Jul-20 21:00N 71°55' E 024°34'714.1
2019-Jul-20 20:30N 72°01' E 024°22'713.9
2019-Jul-20 20:00N 72°07' E 024°09'713.8
2019-Jul-20 19:30N 72°13' E 023°57'714.3
2019-Jul-20 19:00N 72°18' E 023°45'915.0
2019-Jul-20 18:26N 72°26' E 023°29'1115.9
2019-Jul-20 17:43N 72°35' E 023°09'12116.4
2019-Jul-20 10:23N 74°17' E 019°19'612.2
2019-Jul-20 09:55N 74°22' E 019°10'0 0.0
2019-Jul-20 09:26N 74°22' E 019°10'0 0.0
2019-Jul-20 08:53N 74°22' E 019°10'0 0.2
2019-Jul-20 08:26N 74°22' E 019°10'0 0.1
2019-Jul-20 07:56N 74°22' E 019°10'0 0.1
2019-Jul-20 07:23N 74°22' E 019°10'0 0.1
2019-Jul-20 06:44N 74°22' E 019°10'0 0.1
2019-Jul-20 06:20N 74°22' E 019°10'0 0.1
2019-Jul-20 05:59N 74°22' E 019°10'0 0.0
2019-Jul-20 05:23N 74°22' E 019°10'0 0.1
2019-Jul-20 04:53N 74°22' E 019°10'2 3.9
2019-Jul-20 04:30N 74°21' E 019°14'4 8.4
2019-Jul-20 04:00N 74°25' E 019°21'4 8.9
2019-Jul-20 03:30N 74°29' E 019°25'713.3
2019-Jul-20 03:00N 74°35' E 019°15'612.7
2019-Jul-20 02:30N 74°41' E 019°04'611.9
2019-Jul-20 02:00N 74°46' E 018°53'610.9
2019-Jul-20 01:30N 74°51' E 018°44'612.9
2019-Jul-20 01:00N 74°57' E 018°33'10512.6
2019-Jul-19 16:39N 76°27' E 014°52'414.1
2019-Jul-19 16:23N 76°29' E 014°40'513.9
2019-Jul-19 16:00N 76°32' E 014°22'713.8
2019-Jul-19 15:30N 76°35' E 013°54'5 6.4
2019-Jul-19 14:46N 76°39' E 013°42'312.4
2019-Jul-19 14:30N 76°42' E 013°35'5 9.3
2019-Jul-19 13:59N 76°46' E 013°45'713.2
2019-Jul-19 13:27N 76°50' E 014°12'613.2
2019-Jul-19 13:00N 76°53' E 014°34'613.0
2019-Jul-19 12:30N 76°56' E 014°58'713.0
2019-Jul-19 12:00N 76°58' E 015°25'3 5.7
2019-Jul-19 11:30N 76°60' E 015°35'611.3
2019-Jul-19 11:00N 77°01' E 016°00'1 2.1
2019-Jul-19 10:30N 77°00' E 015°56'1 2.1
2019-Jul-19 09:58N 77°01' E 015°51'0 0.0
2019-Jul-19 09:28N 77°01' E 015°51'0 0.0
2019-Jul-19 08:58N 77°01' E 015°51'0 0.0
2019-Jul-19 08:28N 77°01' E 015°51'0 0.0
2019-Jul-19 07:58N 77°01' E 015°51'0 0.0
2019-Jul-19 07:28N 77°01' E 015°51'0 0.0
2019-Jul-19 06:58N 77°01' E 015°51'0 0.0
2019-Jul-19 06:28N 77°01' E 015°51'0 0.1
2019-Jul-19 05:58N 77°01' E 015°51'0 0.1
2019-Jul-19 05:28N 77°01' E 015°51'2 4.3
2019-Jul-19 05:00N 76°59' E 015°45'4 8.3
2019-Jul-19 04:30N 76°58' E 015°28'4 8.6
2019-Jul-19 04:00N 76°58' E 015°09'4 7.5
2019-Jul-19 03:30N 76°59' E 014°53'4 7.6
2019-Jul-19 03:00N 77°00' E 014°37'4 7.2
2019-Jul-19 02:30N 77°01' E 014°22'4 7.5
2019-Jul-19 02:00N 77°02' E 014°06'4 7.5
2019-Jul-19 01:30N 77°03' E 013°50'3 6.9
2019-Jul-19 01:00N 77°06' E 013°42'3 6.4
2019-Jul-19 00:30N 77°09' E 013°38'3 6.4
2019-Jul-19 00:00N 77°12' E 013°34'3 6.4
2019-Jul-18 23:27N 77°16' E 013°32'3 6.0
2019-Jul-18 23:00N 77°19' E 013°31'3 6.0
2019-Jul-18 22:30N 77°22' E 013°30'3 6.1
2019-Jul-18 21:59N 77°25' E 013°29'3 6.2
2019-Jul-18 21:28N 77°28' E 013°34'3 6.2
2019-Jul-18 21:00N 77°30' E 013°39'3 6.4
2019-Jul-18 20:29N 77°33' E 013°46'3 6.3
2019-Jul-18 20:00N 77°35' E 013°58'3 5.8
2019-Jul-18 19:30N 77°36' E 014°10'3 5.2
2019-Jul-18 19:00N 77°36' E 014°22'3 4.9
2019-Jul-18 18:30N 77°36' E 014°34'2 4.3
2019-Jul-18 18:00N 77°34' E 014°38'3 5.3
2019-Jul-18 17:30N 77°31' E 014°39'1 2.6
2019-Jul-18 17:00N 77°30' E 014°41'0 0.0
2019-Jul-18 16:30N 77°30' E 014°41'0 0.2
2019-Jul-18 16:00N 77°30' E 014°40'0 0.1
2019-Jul-18 15:27N 77°30' E 014°40'0 0.0
2019-Jul-18 15:00N 77°30' E 014°40'0 0.0
2019-Jul-18 14:30N 77°30' E 014°40'0 0.0
2019-Jul-18 14:00N 77°30' E 014°40'0 0.0
2019-Jul-18 13:30N 77°30' E 014°40'0 0.0
2019-Jul-18 13:00N 77°30' E 014°40'0 0.0
2019-Jul-18 12:30N 77°30' E 014°40'0 0.0
2019-Jul-18 12:00N 77°30' E 014°40'2 3.4
2019-Jul-18 11:30N 77°31' E 014°40'4 7.5
2019-Jul-18 11:00N 77°35' E 014°39'611.0
2019-Jul-18 10:30N 77°35' E 015°05'2 3.2
2019-Jul-18 09:59N 77°33' E 015°07'0 0.1
2019-Jul-18 09:29N 77°33' E 015°07'0 0.0
2019-Jul-18 08:59N 77°33' E 015°07'0 0.0
2019-Jul-18 08:29N 77°33' E 015°07'0 0.1
2019-Jul-18 07:59N 77°33' E 015°07'0 0.0
2019-Jul-18 07:29N 77°33' E 015°07'0 0.1
2019-Jul-18 06:59N 77°33' E 015°07'0 0.1
2019-Jul-18 06:29N 77°33' E 015°07'0 0.2
2019-Jul-18 05:59N 77°33' E 015°07'0 0.1
2019-Jul-18 05:29N 77°33' E 015°07'0 0.0
2019-Jul-18 04:59N 77°33' E 015°07'0 0.1
2019-Jul-18 04:30N 77°33' E 015°07'2 4.9
2019-Jul-18 04:00N 77°35' E 014°59'4 8.4
2019-Jul-18 03:30N 77°35' E 014°40'4 8.0
2019-Jul-18 03:00N 77°36' E 014°22'4 7.0
2019-Jul-18 02:29N 77°37' E 014°06'4 7.7
2019-Jul-18 02:00N 77°38' E 013°49'4 7.8
2019-Jul-18 01:30N 77°40' E 013°32'2 3.6
2019-Jul-18 01:00N 77°38' E 013°38'2 4.5
2019-Jul-18 00:30N 77°40' E 013°29'3 6.7
2019-Jul-18 00:00N 77°41' E 013°15'4 7.1
2019-Jul-17 23:29N 77°44' E 013°09'3 6.4
2019-Jul-17 23:00N 77°47' E 013°04'3 6.4
2019-Jul-17 22:30N 77°50' E 012°59'3 6.2
2019-Jul-17 22:00N 77°53' E 012°54'3 6.2
2019-Jul-17 21:30N 77°56' E 012°49'3 6.2
2019-Jul-17 21:00N 77°59' E 012°44'3 6.1
2019-Jul-17 20:30N 78°02' E 012°39'3 6.2
2019-Jul-17 20:00N 78°05' E 012°35'3 6.2
2019-Jul-17 19:29N 78°06' E 012°50'3 6.1
2019-Jul-17 19:00N 78°06' E 013°04'3 6.2
2019-Jul-17 18:28N 78°07' E 013°20'3 5.8
2019-Jul-17 17:54N 78°07' E 013°36'2 5.5
2019-Jul-17 17:29N 78°07' E 013°47'2 4.0
2019-Jul-17 16:59N 78°06' E 013°56'0 0.0
2019-Jul-17 16:20N 78°06' E 013°56'0 0.0
2019-Jul-17 15:56N 78°06' E 013°56'0 0.0
2019-Jul-17 15:29N 78°06' E 013°56'0 0.0
2019-Jul-17 14:59N 78°06' E 013°56'0 0.0
2019-Jul-17 14:29N 78°06' E 013°56'0 0.0
2019-Jul-17 13:59N 78°06' E 013°56'0 0.0
2019-Jul-17 13:29N 78°06' E 013°56'0 0.0
2019-Jul-17 12:59N 78°06' E 013°56'0 0.0
2019-Jul-17 12:29N 78°06' E 013°56'0 0.1
2019-Jul-17 11:56N 78°06' E 013°56'1 2.5
2019-Jul-17 11:30N 78°07' E 013°56'2 3.9
2019-Jul-17 11:00N 78°09' E 013°56'2 4.2
2019-Jul-17 10:29N 78°12' E 013°55'2 3.3
2019-Jul-17 10:00N 78°13' E 013°52'0 0.1
2019-Jul-17 09:30N 78°13' E 013°52'0 0.0
2019-Jul-17 09:00N 78°13' E 013°52'0 0.0
2019-Jul-17 08:30N 78°13' E 013°52'0 0.2
2019-Jul-17 08:00N 78°13' E 013°52'0 0.0
2019-Jul-17 07:30N 78°13' E 013°52'0 0.1
2019-Jul-17 07:00N 78°13' E 013°52'0 0.1
2019-Jul-17 06:30N 78°13' E 013°52'0 0.1
2019-Jul-17 06:00N 78°13' E 013°52'0 0.1
2019-Jul-17 05:30N 78°13' E 013°52'0 0.2
2019-Jul-17 05:00N 78°13' E 013°52'0 0.2
2019-Jul-17 04:30N 78°13' E 013°52'1 2.5
2019-Jul-17 03:59N 78°12' E 013°56'4 7.8
2019-Jul-17 03:30N 78°12' E 014°15'3 6.3
2019-Jul-17 02:59N 78°14' E 014°29'3 6.5
2019-Jul-17 02:30N 78°16' E 014°37'3 6.8
2019-Jul-17 02:00N 78°19' E 014°47'4 7.9
2019-Jul-17 01:30N 78°22' E 014°57'4 7.5
2019-Jul-17 01:00N 78°26' E 014°54'3 6.9
2019-Jul-17 00:30N 78°29' E 014°49'4 6.8
2019-Jul-16 23:58N 78°33' E 014°45'3 5.7
2019-Jul-16 23:30N 78°35' E 014°42'20 7.1
2019-Jul-16 20:43N 78°17' E 015°24'2 7.5
2019-Jul-16 20:28N 78°16' E 015°30'2 5.1
2019-Jul-16 20:00N 78°14' E 015°37'2 3.5
2019-Jul-16 19:30N 78°16' E 015°32'611.3
2019-Jul-16 19:00N 78°15' E 015°05'714.2
2019-Jul-16 18:30N 78°13' E 014°32'714.1
2019-Jul-16 18:00N 78°11' E 013°59'714.0
2019-Jul-16 17:30N 78°10' E 013°25'713.5
2019-Jul-16 17:00N 78°10' E 012°52'612.9
2019-Jul-16 16:30N 78°14' E 012°28'714.0
2019-Jul-16 15:59N 78°21' E 012°14'713.9
2019-Jul-16 15:27N 78°27' E 011°59'714.0
2019-Jul-16 14:57N 78°33' E 011°41'4 6.7
2019-Jul-16 14:24N 78°35' E 011°24'3 0.9
2019-Jul-16 10:49N 78°33' E 011°36'612.8
2019-Jul-16 10:20N 78°27' E 011°49'0 0.1
2019-Jul-16 09:57N 78°28' E 011°50'0 0.1
2019-Jul-16 09:21N 78°28' E 011°50'0 0.1
2019-Jul-16 08:51N 78°28' E 011°50'0 0.1
2019-Jul-16 08:27N 78°28' E 011°50'0 0.1
2019-Jul-16 07:57N 78°28' E 011°50'0 0.1
2019-Jul-16 07:20N 78°28' E 011°50'0 0.0
2019-Jul-16 06:03N 78°28' E 011°50'0 0.1
2019-Jul-16 05:57N 78°28' E 011°50'0 0.0
2019-Jul-16 05:27N 78°28' E 011°50'0 0.0
2019-Jul-16 04:51N 78°28' E 011°50'0 0.4
2019-Jul-16 04:30N 78°28' E 011°50'3 6.0
2019-Jul-16 03:56N 78°25' E 012°04'511.5
2019-Jul-16 03:29N 78°20' E 012°09'613.4
2019-Jul-16 03:00N 78°14' E 012°16'611.3
2019-Jul-16 02:30N 78°09' E 012°04'612.0
2019-Jul-16 02:00N 78°10' E 011°35'612.6
2019-Jul-16 01:30N 78°15' E 011°13'812.9
2019-Jul-16 00:53N 78°21' E 010°47'2913.8
2019-Jul-15 22:48N 78°48' E 009°59'514.7
2019-Jul-15 22:30N 78°52' E 009°56'612.1
2019-Jul-15 22:00N 78°57' E 010°17'714.2
2019-Jul-15 21:29N 78°58' E 010°55'613.5
2019-Jul-15 21:00N 78°53' E 011°20'1 0.4
2019-Jul-15 19:22N 78°53' E 011°22'410.5
2019-Jul-15 19:00N 78°56' E 011°11'510.3
2019-Jul-15 18:30N 79°01' E 011°01'4 8.7
2019-Jul-15 18:00N 79°03' E 011°19'5 9.3
2019-Jul-15 17:30N 79°06' E 011°37'2 4.8
2019-Jul-15 17:00N 79°08' E 011°48'0 0.1
2019-Jul-15 16:24N 79°08' E 011°48'0 0.0
2019-Jul-15 15:33N 79°08' E 011°48'0 0.0
2019-Jul-15 15:18N 79°08' E 011°48'0 0.0
2019-Jul-15 14:24N 79°08' E 011°48'0 0.0
2019-Jul-15 14:00N 79°08' E 011°48'0 0.0
2019-Jul-15 13:30N 79°08' E 011°48'0 0.0
2019-Jul-15 13:00N 79°08' E 011°48'0 0.0
2019-Jul-15 12:30N 79°08' E 011°48'3 6.4
2019-Jul-15 12:00N 79°06' E 011°35'714.3
2019-Jul-15 11:30N 78°59' E 011°48'3 6.8
2019-Jul-15 11:00N 78°56' E 011°56'0 0.0
2019-Jul-15 10:30N 78°56' E 011°56'0 0.0
2019-Jul-15 10:00N 78°56' E 011°56'0 0.0
2019-Jul-15 09:30N 78°56' E 011°56'0 0.0
2019-Jul-15 09:00N 78°56' E 011°56'0 0.0
2019-Jul-15 08:30N 78°56' E 011°56'0 0.0
2019-Jul-15 08:00N 78°56' E 011°56'0 0.0
2019-Jul-15 07:30N 78°56' E 011°56'0 0.0
2019-Jul-15 07:00N 78°56' E 011°56'0 0.7
2019-Jul-15 06:30N 78°56' E 011°56'4 6.9
2019-Jul-15 06:00N 78°59' E 011°46'4 7.9
2019-Jul-15 05:30N 79°01' E 011°27'3 7.0
2019-Jul-15 05:00N 79°02' E 011°11'3 6.6
2019-Jul-15 04:30N 79°04' E 010°56'3 6.7
2019-Jul-15 04:00N 79°07' E 010°46'4 6.9
2019-Jul-15 03:30N 79°10' E 010°37'3 6.7
2019-Jul-15 03:00N 79°12' E 010°28'3 6.5
2019-Jul-15 02:30N 79°15' E 010°19'3 6.4
2019-Jul-15 02:00N 79°18' E 010°09'  
Track history (hours):
 
Tides and Currents Weather Stations Pressure Air Temp Water Temp Dewpoint Dewpoint Depression Visibility Wind Speed Wind Dir Waves Ship Positions

Silver Cloud

Operator: V Ships Leisure SAM

Last reported at 2019-Jul-23 01:54 UTC. Time now 2019-Jul-23 09:37 UTC.
Position N 71°28' E 021°04'.

Length 156 m; draft 5.7 m.

Type: Passenger vessel. MMSI: 309027000.

Date/timePositionNaut miles runAvg speedWind from/ knotsBaromVisibWave heightAir tempDewpointWater temp
2019-Jul-23 01:54N 71°28' E 021°04'717.6
2019-Jul-23 01:30N 71°21' E 021°03'917.8
2019-Jul-23 01:00N 71°12' E 021°01'918.0
2019-Jul-23 00:30N 71°03' E 020°58'917.8
2019-Jul-23 00:00N 70°54' E 020°55'918.0
2019-Jul-22 23:30N 70°45' E 020°52'917.8
2019-Jul-22 23:00N 70°36' E 020°49'917.5
2019-Jul-22 22:30N 70°28' E 020°43'917.7
2019-Jul-22 21:59N 70°19' E 020°33'918.1
2019-Jul-22 21:30N 70°12' E 020°21'918.0
2019-Jul-22 21:00N 70°04' E 020°08'816.4
2019-Jul-22 20:30N 69°57' E 019°55'917.3
2019-Jul-22 20:00N 69°50' E 019°39'918.6
2019-Jul-22 19:30N 69°47' E 019°13'817.2
2019-Jul-22 19:00N 69°42' E 018°54'4 7.3
2019-Jul-22 18:30N 69°38' E 018°57'1 2.1
2019-Jul-22 18:00N 69°39' E 018°58'0 0.0
2019-Jul-22 17:30N 69°39' E 018°58'0 0.0
2019-Jul-22 17:00N 69°39' E 018°58'0 0.0
2019-Jul-22 16:30N 69°39' E 018°58'0 0.0
2019-Jul-22 16:00N 69°39' E 018°58'0 0.0
2019-Jul-22 15:30N 69°39' E 018°58'0 0.0
2019-Jul-22 15:00N 69°39' E 018°58'0 0.0
2019-Jul-22 14:30N 69°39' E 018°58'0 0.0
2019-Jul-22 14:00N 69°39' E 018°58'0 0.0
2019-Jul-22 13:30N 69°39' E 018°58'0 0.0
2019-Jul-22 13:00N 69°39' E 018°58'0 0.0
2019-Jul-22 12:30N 69°39' E 018°58'0 0.0
2019-Jul-22 12:00N 69°39' E 018°58'0 0.0
2019-Jul-22 11:30N 69°39' E 018°58'0 0.0
2019-Jul-22 11:00N 69°39' E 018°58'0 0.0
2019-Jul-22 10:30N 69°39' E 018°58'0 0.0
2019-Jul-22 10:00N 69°39' E 018°58'0 0.0
2019-Jul-22 09:30N 69°39' E 018°58'0 0.0
2019-Jul-22 09:00N 69°39' E 018°58'0 0.0
2019-Jul-22 08:30N 69°39' E 018°58'0 0.0
2019-Jul-22 08:00N 69°39' E 018°58'0 0.0
2019-Jul-22 07:30N 69°39' E 018°58'0 0.0
2019-Jul-22 07:00N 69°39' E 018°58'1 1.6
2019-Jul-22 06:30N 69°38' E 018°57'3 5.8
2019-Jul-22 06:00N 69°40' E 018°51'510.4
2019-Jul-22 05:30N 69°44' E 019°01'510.2
2019-Jul-22 05:00N 69°47' E 019°14'611.1
2019-Jul-22 04:29N 69°49' E 019°29'612.0
2019-Jul-22 04:00N 69°51' E 019°45'713.7
2019-Jul-22 03:30N 69°56' E 019°57'713.8
2019-Jul-22 03:00N 70°02' E 020°07'713.7
2019-Jul-22 02:29N 70°09' E 020°16'713.3
2019-Jul-22 01:59N 70°14' E 020°26'713.4
2019-Jul-22 01:28N 70°21' E 020°36'613.0
2019-Jul-22 00:59N 70°26' E 020°44'612.7
2019-Jul-22 00:30N 70°32' E 020°51'612.4
2019-Jul-22 00:00N 70°37' E 021°02'713.1
2019-Jul-21 23:30N 70°41' E 021°17'613.0
2019-Jul-21 23:00N 70°45' E 021°33'613.0
2019-Jul-21 22:31N 70°48' E 021°50'712.8
2019-Jul-21 21:59N 70°52' E 022°07'713.7
2019-Jul-21 21:30N 70°55' E 022°26'713.9
2019-Jul-21 21:00N 70°58' E 022°44'713.7
2019-Jul-21 20:29N 71°01' E 023°03'714.0
2019-Jul-21 20:00N 71°04' E 023°22'713.5
2019-Jul-21 19:30N 71°08' E 023°40'713.4
2019-Jul-21 19:00N 71°11' E 023°59'713.8
2019-Jul-21 18:30N 71°12' E 024°20'713.7
2019-Jul-21 18:00N 71°13' E 024°40'714.1
2019-Jul-21 17:30N 71°12' E 025°02'714.3
2019-Jul-21 17:00N 71°12' E 025°24'714.1
2019-Jul-21 16:30N 71°12' E 025°47'510.0
2019-Jul-21 16:00N 71°07' E 025°52'0 0.1
2019-Jul-21 15:30N 71°07' E 025°52'0 0.0
2019-Jul-21 15:00N 71°07' E 025°52'0 0.0
2019-Jul-21 14:30N 71°07' E 025°52'0 0.0
2019-Jul-21 14:00N 71°07' E 025°52'0 0.0
2019-Jul-21 13:30N 71°07' E 025°52'0 0.0
2019-Jul-21 12:51N 71°07' E 025°52'0 0.0
2019-Jul-21 12:30N 71°07' E 025°52'0 0.1
2019-Jul-21 12:00N 71°07' E 025°51'0 0.1
2019-Jul-21 11:30N 71°07' E 025°52'3 5.7
2019-Jul-21 11:00N 71°10' E 025°52'3 6.0
2019-Jul-21 10:30N 71°12' E 025°45'3 6.9
2019-Jul-21 10:00N 71°12' E 025°34'3 6.4
2019-Jul-21 09:30N 71°09' E 025°27'1 2.5
2019-Jul-21 08:58N 71°08' E 025°25'0 0.1
2019-Jul-21 08:25N 71°08' E 025°25'0 0.0
2019-Jul-21 07:58N 71°08' E 025°25'0 0.0
2019-Jul-21 07:28N 71°08' E 025°25'0 0.0
2019-Jul-21 06:58N 71°08' E 025°25'0 0.1
2019-Jul-21 06:28N 71°08' E 025°25'0 0.0
2019-Jul-21 05:58N 71°08' E 025°25'0 0.0
2019-Jul-21 05:28N 71°08' E 025°25'0 0.0
2019-Jul-21 04:58N 71°08' E 025°25'0 1.0
2019-Jul-21 04:30N 71°08' E 025°26'4 8.1
2019-Jul-21 04:00N 71°12' E 025°34'510.3
2019-Jul-21 03:30N 71°11' E 025°50'5 9.9
2019-Jul-21 03:00N 71°09' E 026°04'510.2
2019-Jul-21 02:30N 71°05' E 026°14'5 9.9
2019-Jul-21 02:00N 71°00' E 026°17'4 7.3
2019-Jul-21 01:30N 71°04' E 026°19'611.7
2019-Jul-21 00:58N 71°09' E 026°10'612.2
2019-Jul-21 00:29N 71°14' E 025°60'713.9
2019-Jul-21 00:00N 71°20' E 025°48'816.0
2019-Jul-20 23:30N 71°26' E 025°32'815.5
2019-Jul-20 23:00N 71°32' E 025°15'815.3
2019-Jul-20 22:30N 71°37' E 024°57'713.2
2019-Jul-20 22:00N 71°43' E 024°55'613.1
2019-Jul-20 21:30N 71°49' E 024°46'713.7
2019-Jul-20 21:00N 71°55' E 024°34'714.1
2019-Jul-20 20:30N 72°01' E 024°22'713.9
2019-Jul-20 20:00N 72°07' E 024°09'713.8
2019-Jul-20 19:30N 72°13' E 023°57'714.3
2019-Jul-20 19:00N 72°18' E 023°45'915.0
2019-Jul-20 18:26N 72°26' E 023°29'1115.9
2019-Jul-20 17:43N 72°35' E 023°09'12116.4
2019-Jul-20 10:23N 74°17' E 019°19'612.2
2019-Jul-20 09:55N 74°22' E 019°10'0 0.0
2019-Jul-20 09:26N 74°22' E 019°10'0 0.0
2019-Jul-20 08:53N 74°22' E 019°10'0 0.2
2019-Jul-20 08:26N 74°22' E 019°10'0 0.1
2019-Jul-20 07:56N 74°22' E 019°10'0 0.1
2019-Jul-20 07:23N 74°22' E 019°10'0 0.1
2019-Jul-20 06:44N 74°22' E 019°10'0 0.1
2019-Jul-20 06:20N 74°22' E 019°10'0 0.1
2019-Jul-20 05:59N 74°22' E 019°10'0 0.0
2019-Jul-20 05:23N 74°22' E 019°10'0 0.1
2019-Jul-20 04:53N 74°22' E 019°10'2 3.9
2019-Jul-20 04:30N 74°21' E 019°14'4 8.4
2019-Jul-20 04:00N 74°25' E 019°21'4 8.9
2019-Jul-20 03:30N 74°29' E 019°25'713.3
2019-Jul-20 03:00N 74°35' E 019°15'612.7
2019-Jul-20 02:30N 74°41' E 019°04'611.9
2019-Jul-20 02:00N 74°46' E 018°53'610.9
2019-Jul-20 01:30N 74°51' E 018°44'612.9
2019-Jul-20 01:00N 74°57' E 018°33'10512.6
2019-Jul-19 16:39N 76°27' E 014°52'414.1
2019-Jul-19 16:23N 76°29' E 014°40'513.9
2019-Jul-19 16:00N 76°32' E 014°22'713.8
2019-Jul-19 15:30N 76°35' E 013°54'5 6.4
2019-Jul-19 14:46N 76°39' E 013°42'312.4
2019-Jul-19 14:30N 76°42' E 013°35'5 9.3
2019-Jul-19 13:59N 76°46' E 013°45'713.2
2019-Jul-19 13:27N 76°50' E 014°12'613.2
2019-Jul-19 13:00N 76°53' E 014°34'613.0
2019-Jul-19 12:30N 76°56' E 014°58'713.0
2019-Jul-19 12:00N 76°58' E 015°25'3 5.7
2019-Jul-19 11:30N 76°60' E 015°35'611.3
2019-Jul-19 11:00N 77°01' E 016°00'1 2.1
2019-Jul-19 10:30N 77°00' E 015°56'1 2.1
2019-Jul-19 09:58N 77°01' E 015°51'0 0.0
2019-Jul-19 09:28N 77°01' E 015°51'0 0.0
2019-Jul-19 08:58N 77°01' E 015°51'0 0.0
2019-Jul-19 08:28N 77°01' E 015°51'0 0.0
2019-Jul-19 07:58N 77°01' E 015°51'0 0.0
2019-Jul-19 07:28N 77°01' E 015°51'0 0.0
2019-Jul-19 06:58N 77°01' E 015°51'0 0.0
2019-Jul-19 06:28N 77°01' E 015°51'0 0.1
2019-Jul-19 05:58N 77°01' E 015°51'0 0.1
2019-Jul-19 05:28N 77°01' E 015°51'2 4.3
2019-Jul-19 05:00N 76°59' E 015°45'4 8.3
2019-Jul-19 04:30N 76°58' E 015°28'4 8.6
2019-Jul-19 04:00N 76°58' E 015°09'4 7.5
2019-Jul-19 03:30N 76°59' E 014°53'4 7.6
2019-Jul-19 03:00N 77°00' E 014°37'4 7.2
2019-Jul-19 02:30N 77°01' E 014°22'4 7.5
2019-Jul-19 02:00N 77°02' E 014°06'4 7.5
2019-Jul-19 01:30N 77°03' E 013°50'3 6.9
2019-Jul-19 01:00N 77°06' E 013°42'3 6.4
2019-Jul-19 00:30N 77°09' E 013°38'3 6.4
2019-Jul-19 00:00N 77°12' E 013°34'3 6.4
2019-Jul-18 23:27N 77°16' E 013°32'3 6.0
2019-Jul-18 23:00N 77°19' E 013°31'3 6.0
2019-Jul-18 22:30N 77°22' E 013°30'3 6.1
2019-Jul-18 21:59N 77°25' E 013°29'3 6.2
2019-Jul-18 21:28N 77°28' E 013°34'3 6.2
2019-Jul-18 21:00N 77°30' E 013°39'3 6.4
2019-Jul-18 20:29N 77°33' E 013°46'3 6.3
2019-Jul-18 20:00N 77°35' E 013°58'3 5.8
2019-Jul-18 19:30N 77°36' E 014°10'3 5.2
2019-Jul-18 19:00N 77°36' E 014°22'3 4.9
2019-Jul-18 18:30N 77°36' E 014°34'2 4.3
2019-Jul-18 18:00N 77°34' E 014°38'3 5.3
2019-Jul-18 17:30N 77°31' E 014°39'1 2.6
2019-Jul-18 17:00N 77°30' E 014°41'0 0.0
2019-Jul-18 16:30N 77°30' E 014°41'0 0.2
2019-Jul-18 16:00N 77°30' E 014°40'0 0.1
2019-Jul-18 15:27N 77°30' E 014°40'0 0.0
2019-Jul-18 15:00N 77°30' E 014°40'0 0.0
2019-Jul-18 14:30N 77°30' E 014°40'0 0.0
2019-Jul-18 14:00N 77°30' E 014°40'0 0.0
2019-Jul-18 13:30N 77°30' E 014°40'0 0.0
2019-Jul-18 13:00N 77°30' E 014°40'0 0.0
2019-Jul-18 12:30N 77°30' E 014°40'0 0.0
2019-Jul-18 12:00N 77°30' E 014°40'2 3.4
2019-Jul-18 11:30N 77°31' E 014°40'4 7.5
2019-Jul-18 11:00N 77°35' E 014°39'611.0
2019-Jul-18 10:30N 77°35' E 015°05'2 3.2
2019-Jul-18 09:59N 77°33' E 015°07'0 0.1
2019-Jul-18 09:29N 77°33' E 015°07'0 0.0
2019-Jul-18 08:59N 77°33' E 015°07'0 0.0
2019-Jul-18 08:29N 77°33' E 015°07'0 0.1
2019-Jul-18 07:59N 77°33' E 015°07'0 0.0
2019-Jul-18 07:29N 77°33' E 015°07'0 0.1
2019-Jul-18 06:59N 77°33' E 015°07'0 0.1
2019-Jul-18 06:29N 77°33' E 015°07'0 0.2
2019-Jul-18 05:59N 77°33' E 015°07'0 0.1
2019-Jul-18 05:29N 77°33' E 015°07'0 0.0
2019-Jul-18 04:59N 77°33' E 015°07'0 0.1
2019-Jul-18 04:30N 77°33' E 015°07'2 4.9
2019-Jul-18 04:00N 77°35' E 014°59'4 8.4
2019-Jul-18 03:30N 77°35' E 014°40'4 8.0
2019-Jul-18 03:00N 77°36' E 014°22'4 7.0
2019-Jul-18 02:29N 77°37' E 014°06'4 7.7
2019-Jul-18 02:00N 77°38' E 013°49'4 7.8
2019-Jul-18 01:30N 77°40' E 013°32'2 3.6
2019-Jul-18 01:00N 77°38' E 013°38'2 4.5
2019-Jul-18 00:30N 77°40' E 013°29'3 6.7
2019-Jul-18 00:00N 77°41' E 013°15'4 7.1
2019-Jul-17 23:29N 77°44' E 013°09'3 6.4
2019-Jul-17 23:00N 77°47' E 013°04'3 6.4
2019-Jul-17 22:30N 77°50' E 012°59'3 6.2
2019-Jul-17 22:00N 77°53' E 012°54'3 6.2
2019-Jul-17 21:30N 77°56' E 012°49'3 6.2
2019-Jul-17 21:00N 77°59' E 012°44'3 6.1
2019-Jul-17 20:30N 78°02' E 012°39'3 6.2
2019-Jul-17 20:00N 78°05' E 012°35'3 6.2
2019-Jul-17 19:29N 78°06' E 012°50'3 6.1
2019-Jul-17 19:00N 78°06' E 013°04'3 6.2
2019-Jul-17 18:28N 78°07' E 013°20'3 5.8
2019-Jul-17 17:54N 78°07' E 013°36'2 5.5
2019-Jul-17 17:29N 78°07' E 013°47'2 4.0
2019-Jul-17 16:59N 78°06' E 013°56'0 0.0
2019-Jul-17 16:20N 78°06' E 013°56'0 0.0
2019-Jul-17 15:56N 78°06' E 013°56'0 0.0
2019-Jul-17 15:29N 78°06' E 013°56'0 0.0
2019-Jul-17 14:59N 78°06' E 013°56'0 0.0
2019-Jul-17 14:29N 78°06' E 013°56'0 0.0
2019-Jul-17 13:59N 78°06' E 013°56'0 0.0
2019-Jul-17 13:29N 78°06' E 013°56'0 0.0
2019-Jul-17 12:59N 78°06' E 013°56'0 0.0
2019-Jul-17 12:29N 78°06' E 013°56'0 0.1
2019-Jul-17 11:56N 78°06' E 013°56'1 2.5
2019-Jul-17 11:30N 78°07' E 013°56'2 3.9
2019-Jul-17 11:00N 78°09' E 013°56'2 4.2
2019-Jul-17 10:29N 78°12' E 013°55'2 3.3
2019-Jul-17 10:00N 78°13' E 013°52'0 0.1
2019-Jul-17 09:30N 78°13' E 013°52'0 0.0
2019-Jul-17 09:00N 78°13' E 013°52'0 0.0
2019-Jul-17 08:30N 78°13' E 013°52'0 0.2
2019-Jul-17 08:00N 78°13' E 013°52'0 0.0
2019-Jul-17 07:30N 78°13' E 013°52'0 0.1
2019-Jul-17 07:00N 78°13' E 013°52'0 0.1
2019-Jul-17 06:30N 78°13' E 013°52'0 0.1
2019-Jul-17 06:00N 78°13' E 013°52'0 0.1
2019-Jul-17 05:30N 78°13' E 013°52'0 0.2
2019-Jul-17 05:00N 78°13' E 013°52'0 0.2
2019-Jul-17 04:30N 78°13' E 013°52'1 2.5
2019-Jul-17 03:59N 78°12' E 013°56'4 7.8
2019-Jul-17 03:30N 78°12' E 014°15'3 6.3
2019-Jul-17 02:59N 78°14' E 014°29'3 6.5
2019-Jul-17 02:30N 78°16' E 014°37'3 6.8
2019-Jul-17 02:00N 78°19' E 014°47'4 7.9
2019-Jul-17 01:30N 78°22' E 014°57'4 7.5
2019-Jul-17 01:00N 78°26' E 014°54'3 6.9
2019-Jul-17 00:30N 78°29' E 014°49'4 6.8
2019-Jul-16 23:58N 78°33' E 014°45'3 5.7
2019-Jul-16 23:30N 78°35' E 014°42'20 7.1
2019-Jul-16 20:43N 78°17' E 015°24'2 7.5
2019-Jul-16 20:28N 78°16' E 015°30'2 5.1
2019-Jul-16 20:00N 78°14' E 015°37'2 3.5
2019-Jul-16 19:30N 78°16' E 015°32'611.3
2019-Jul-16 19:00N 78°15' E 015°05'714.2
2019-Jul-16 18:30N 78°13' E 014°32'714.1
2019-Jul-16 18:00N 78°11' E 013°59'714.0
2019-Jul-16 17:30N 78°10' E 013°25'713.5
2019-Jul-16 17:00N 78°10' E 012°52'612.9
2019-Jul-16 16:30N 78°14' E 012°28'714.0
2019-Jul-16 15:59N 78°21' E 012°14'713.9
2019-Jul-16 15:27N 78°27' E 011°59'714.0
2019-Jul-16 14:57N 78°33' E 011°41'4 6.7
2019-Jul-16 14:24N 78°35' E 011°24'3 0.9
2019-Jul-16 10:49N 78°33' E 011°36'612.8
2019-Jul-16 10:20N 78°27' E 011°49'0 0.1
2019-Jul-16 09:57N 78°28' E 011°50'0 0.1
2019-Jul-16 09:21N 78°28' E 011°50'0 0.1
2019-Jul-16 08:51N 78°28' E 011°50'0 0.1
2019-Jul-16 08:27N 78°28' E 011°50'0 0.1
2019-Jul-16 07:57N 78°28' E 011°50'0 0.1
2019-Jul-16 07:20N 78°28' E 011°50'0 0.0
2019-Jul-16 06:03N 78°28' E 011°50'0 0.1
2019-Jul-16 05:57N 78°28' E 011°50'0 0.0
2019-Jul-16 05:27N 78°28' E 011°50'0 0.0
2019-Jul-16 04:51N 78°28' E 011°50'0 0.4
2019-Jul-16 04:30N 78°28' E 011°50'3 6.0
2019-Jul-16 03:56N 78°25' E 012°04'511.5
2019-Jul-16 03:29N 78°20' E 012°09'613.4
2019-Jul-16 03:00N 78°14' E 012°16'611.3
2019-Jul-16 02:30N 78°09' E 012°04'612.0
2019-Jul-16 02:00N 78°10' E 011°35'612.6
2019-Jul-16 01:30N 78°15' E 011°13'812.9
2019-Jul-16 00:53N 78°21' E 010°47'2913.8
2019-Jul-15 22:48N 78°48' E 009°59'514.7
2019-Jul-15 22:30N 78°52' E 009°56'612.1
2019-Jul-15 22:00N 78°57' E 010°17'714.2
2019-Jul-15 21:29N 78°58' E 010°55'613.5
2019-Jul-15 21:00N 78°53' E 011°20'1 0.4
2019-Jul-15 19:22N 78°53' E 011°22'410.5
2019-Jul-15 19:00N 78°56' E 011°11'510.3
2019-Jul-15 18:30N 79°01' E 011°01'4 8.7
2019-Jul-15 18:00N 79°03' E 011°19'5 9.3
2019-Jul-15 17:30N 79°06' E 011°37'2 4.8
2019-Jul-15 17:00N 79°08' E 011°48'0 0.1
2019-Jul-15 16:24N 79°08' E 011°48'0 0.0
2019-Jul-15 15:33N 79°08' E 011°48'0 0.0
2019-Jul-15 15:18N 79°08' E 011°48'0 0.0
2019-Jul-15 14:24N 79°08' E 011°48'0 0.0
2019-Jul-15 14:00N 79°08' E 011°48'0 0.0
2019-Jul-15 13:30N 79°08' E 011°48'0 0.0
2019-Jul-15 13:00N 79°08' E 011°48'0 0.0
2019-Jul-15 12:30N 79°08' E 011°48'3 6.4
2019-Jul-15 12:00N 79°06' E 011°35'714.3
2019-Jul-15 11:30N 78°59' E 011°48'3 6.8
2019-Jul-15 11:00N 78°56' E 011°56'0 0.0
2019-Jul-15 10:30N 78°56' E 011°56'0 0.0
2019-Jul-15 10:00N 78°56' E 011°56'0 0.0
2019-Jul-15 09:30N 78°56' E 011°56'0 0.0
2019-Jul-15 09:00N 78°56' E 011°56'0 0.0
2019-Jul-15 08:30N 78°56' E 011°56'0 0.0
2019-Jul-15 08:00N 78°56' E 011°56'0 0.0
2019-Jul-15 07:30N 78°56' E 011°56'0 0.0
2019-Jul-15 07:00N 78°56' E 011°56'0 0.7
2019-Jul-15 06:30N 78°56' E 011°56'4 6.9
2019-Jul-15 06:00N 78°59' E 011°46'4 7.9
2019-Jul-15 05:30N 79°01' E 011°27'3 7.0
2019-Jul-15 05:00N 79°02' E 011°11'3 6.6
2019-Jul-15 04:30N 79°04' E 010°56'3 6.7
2019-Jul-15 04:00N 79°07' E 010°46'4 6.9
2019-Jul-15 03:30N 79°10' E 010°37'3 6.7
2019-Jul-15 03:00N 79°12' E 010°28'3 6.5
2019-Jul-15 02:30N 79°15' E 010°19'3 6.4
2019-Jul-15 02:00N 79°18' E 010°09'  

Dump ship's entire track history